createdAt,value
2014-11-27T13:37:22.013Z,763
2014-11-27T13:37:40.388Z,763
2014-11-27T13:37:58.153Z,763
2014-11-27T13:38:16.531Z,763
2014-11-27T13:38:34.469Z,763
2014-11-27T13:38:52.172Z,763
2014-11-27T13:39:10.594Z,763
2014-11-27T13:39:28.424Z,763
2014-11-27T13:39:46.783Z,763
2014-11-27T13:40:04.533Z,763
2014-11-27T13:40:22.346Z,763
2014-11-27T13:40:40.771Z,763
2014-11-27T13:40:59.302Z,763
2014-11-27T13:41:17.849Z,763
2014-11-27T13:41:35.569Z,763
2014-11-27T13:41:54.054Z,763
2014-11-27T13:42:11.804Z,763
2014-11-27T13:42:30.244Z,763
2014-11-27T13:42:47.979Z,763
2014-11-27T13:43:05.932Z,763
2014-11-27T13:43:23.791Z,763
2014-11-27T13:43:40.888Z,763
2014-11-27T13:43:58.763Z,763
2014-11-27T13:44:16.466Z,763
2014-11-27T13:44:34.888Z,763
2014-11-27T13:44:53.421Z,763
2014-11-27T13:45:11.796Z,763
2014-11-27T13:45:29.593Z,763
2014-11-27T13:45:47.564Z,763
2014-11-27T13:46:05.470Z,763
2014-11-27T13:46:23.908Z,763
2014-11-27T13:46:41.738Z,763
2014-11-27T13:47:00.222Z,763
2014-11-27T13:47:18.644Z,763
2014-11-27T13:47:36.066Z,763
2014-11-27T13:47:54.584Z,763
2014-11-27T13:48:12.913Z,763
2014-11-27T13:48:31.350Z,763
2014-11-27T13:48:49.868Z,763
2014-11-27T13:49:07.024Z,763
2014-11-27T13:49:25.618Z,763
2014-11-27T13:49:44.024Z,763
2014-11-27T13:50:02.543Z,763
2014-11-27T13:50:20.933Z,763
2014-11-27T13:50:38.714Z,763
2014-11-27T13:50:57.029Z,763
2014-11-27T13:51:14.388Z,763
2014-11-27T13:51:32.763Z,763
2014-11-27T13:51:51.170Z,763
2014-11-27T13:52:08.985Z,762
2014-11-27T13:52:26.719Z,760
2014-11-27T13:52:45.329Z,759
2014-11-27T13:53:03.112Z,758
2014-11-27T13:53:21.565Z,757
2014-11-27T13:53:39.956Z,757
2014-11-27T13:53:58.378Z,757
2014-11-27T13:54:16.755Z,757
2014-11-27T13:54:35.255Z,757
2014-11-27T13:54:53.755Z,756
2014-11-27T13:55:11.367Z,756
2014-11-27T13:55:29.226Z,756
2014-11-27T13:55:47.508Z,756
2014-11-27T13:56:05.430Z,756
2014-11-27T13:56:23.650Z,756
2014-11-27T13:56:42.072Z,756
2014-11-27T13:57:00.447Z,756
2014-11-27T13:57:18.918Z,754
2014-11-27T13:57:37.340Z,753
2014-11-27T13:57:55.105Z,751
2014-11-27T13:58:12.496Z,749
2014-11-27T13:58:30.843Z,747
2014-11-27T13:58:48.530Z,745
2014-11-27T13:59:06.983Z,743
2014-11-27T13:59:25.424Z,742
2014-11-27T13:59:43.861Z,740
2014-11-27T14:00:02.346Z,739
2014-11-27T14:00:20.690Z,737
2014-11-27T14:00:39.035Z,735
2014-11-27T14:00:57.488Z,734
2014-11-27T14:01:15.332Z,733
2014-11-27T14:01:32.990Z,733
2014-11-27T14:01:50.865Z,733
2014-11-27T14:02:09.194Z,731
2014-11-27T14:02:27.647Z,730
2014-11-27T14:02:46.056Z,730
2014-11-27T14:03:04.478Z,730
2014-11-27T14:03:23.040Z,729
2014-11-27T14:03:41.542Z,728
2014-11-27T14:03:59.324Z,727
2014-11-27T14:04:17.089Z,726
2014-11-27T14:04:35.699Z,725
2014-11-27T14:04:54.139Z,725
2014-11-27T14:05:12.530Z,726
2014-11-27T14:05:30.827Z,727
2014-11-27T14:05:48.766Z,729
2014-11-27T14:06:07.344Z,730
2014-11-27T14:06:25.704Z,731
2014-11-27T14:06:44.125Z,731
2014-11-27T14:07:01.909Z,732
2014-11-27T14:07:19.752Z,733
2014-11-27T14:07:38.315Z,735
2014-11-27T14:07:56.755Z,736
2014-11-27T14:08:15.177Z,738
2014-11-27T14:08:33.521Z,740
2014-11-27T14:08:51.974Z,742
2014-11-27T14:09:09.868Z,743
2014-11-27T14:09:28.446Z,745
2014-11-27T14:09:46.258Z,746
2014-11-27T14:10:04.885Z,746
2014-11-27T14:10:23.292Z,746
2014-11-27T14:10:41.589Z,747
2014-11-27T14:11:00.182Z,748
2014-11-27T14:11:18.638Z,748
2014-11-27T14:11:37.154Z,747
2014-11-27T14:11:54.873Z,747
2014-11-27T14:12:13.547Z,747
2014-11-27T14:12:32.125Z,746
2014-11-27T14:12:50.578Z,744
2014-11-27T14:13:07.719Z,742
2014-11-27T14:13:26.112Z,741
2014-11-27T14:13:44.018Z,740
2014-11-27T14:14:02.518Z,739
2014-11-27T14:14:20.895Z,739
2014-11-27T14:14:39.302Z,739
2014-11-27T14:14:57.099Z,740
2014-11-27T14:15:15.552Z,739
2014-11-27T14:15:33.914Z,739
2014-11-27T14:15:51.789Z,739
2014-11-27T14:16:10.383Z,740
2014-11-27T14:16:28.729Z,740
2014-11-27T14:16:47.119Z,740
2014-11-27T14:17:04.932Z,738
2014-11-27T14:17:23.416Z,736
2014-11-27T14:17:41.262Z,734
2014-11-27T14:17:59.621Z,733
2014-11-27T14:18:18.527Z,732
2014-11-27T14:18:36.998Z,731
2014-11-27T14:18:54.826Z,727
2014-11-27T14:19:12.733Z,725
2014-11-27T14:19:31.279Z,724
2014-11-27T14:19:49.595Z,724
2014-11-27T14:20:08.017Z,726
2014-11-27T14:20:25.736Z,728
2014-11-27T14:20:44.223Z,729
2014-11-27T14:21:02.598Z,730
2014-11-27T14:21:21.067Z,730
2014-11-27T14:21:38.864Z,728
2014-11-27T14:21:56.725Z,725
2014-11-27T14:22:15.147Z,722
2014-11-27T14:22:32.912Z,719
2014-11-27T14:22:51.352Z,717
2014-11-27T14:23:09.821Z,715
2014-11-27T14:23:27.586Z,714
2014-11-27T14:23:45.399Z,713
2014-11-27T14:24:03.417Z,712
2014-11-27T14:24:21.136Z,711
2014-11-27T14:24:39.589Z,711
2014-11-27T14:24:57.983Z,712
2014-11-27T14:25:16.327Z,713
2014-11-27T14:25:34.670Z,715
2014-11-27T14:25:53.061Z,716
2014-11-27T14:26:11.485Z,717
2014-11-27T14:26:29.876Z,718
2014-11-27T14:26:47.954Z,718
2014-11-27T14:27:06.300Z,719
2014-11-27T14:27:24.613Z,721
2014-11-27T14:27:43.050Z,724
2014-11-27T14:28:01.066Z,727
2014-11-27T14:28:19.584Z,729
2014-11-27T14:28:38.021Z,732
2014-11-27T14:28:56.521Z,735
2014-11-27T14:29:14.242Z,738
2014-11-27T14:29:31.976Z,740
2014-11-27T14:29:50.023Z,742
2014-11-27T14:30:07.804Z,744
2014-11-27T14:30:26.323Z,746
2014-11-27T14:30:45.011Z,747
2014-11-27T14:31:03.386Z,747
2014-11-27T14:31:20.778Z,747
2014-11-27T14:31:39.341Z,745
2014-11-27T14:31:57.903Z,742
2014-11-27T14:32:16.278Z,739
2014-11-27T14:32:34.094Z,734
2014-11-27T14:32:51.906Z,729
2014-11-27T14:33:09.797Z,723
2014-11-27T14:33:27.719Z,718
2014-11-27T14:33:46.377Z,714
2014-11-27T14:34:04.643Z,712
2014-11-27T14:34:22.986Z,712
2014-11-27T14:34:41.488Z,714
2014-11-27T14:34:59.535Z,717
2014-11-27T14:35:17.910Z,721
2014-11-27T14:35:36.334Z,725
2014-11-27T14:35:54.225Z,730
2014-11-27T14:36:12.600Z,734
2014-11-27T14:36:38.901Z,739
2014-11-27T14:36:57.494Z,742
2014-11-27T14:37:16.119Z,744
2014-11-27T14:37:34.494Z,745
2014-11-27T14:37:51.559Z,746
2014-11-27T14:38:09.996Z,746
2014-11-27T14:38:28.449Z,744
2014-11-27T14:38:46.342Z,741
2014-11-27T14:39:04.639Z,738
2014-11-27T14:39:23.092Z,735
2014-11-27T14:39:41.514Z,732
2014-11-27T14:40:00.064Z,729
2014-11-27T14:40:17.689Z,727
2014-11-27T14:40:36.079Z,725
2014-11-27T14:40:54.519Z,724
2014-11-27T14:41:11.722Z,724
2014-11-27T14:41:41.425Z,725
2014-11-27T14:42:02.724Z,726
2014-11-27T14:42:23.115Z,727
2014-11-27T14:42:57.493Z,728
2014-11-27T19:59:18.377Z,2
2014-11-27T19:59:36.846Z,2
2014-11-27T19:59:55.236Z,2
2014-11-27T20:00:13.083Z,2
2014-11-27T20:00:31.255Z,2
2014-11-27T20:00:49.224Z,2
2014-11-27T20:01:07.724Z,2
2014-11-27T20:01:26.242Z,2
2014-11-27T20:01:44.742Z,2
2014-11-27T20:02:03.352Z,2
2014-11-27T20:02:20.979Z,2
2014-11-27T20:02:39.463Z,2
2014-11-27T20:02:57.932Z,2
2014-11-27T20:03:16.057Z,2
2014-11-27T20:03:33.700Z,2
2014-11-27T20:03:52.200Z,2
2014-11-27T20:04:10.779Z,2
2014-11-27T20:04:28.671Z,2
2014-11-27T20:04:47.296Z,2
2014-11-27T20:05:04.984Z,2
2014-11-27T20:05:23.421Z,2
2014-11-27T20:05:41.079Z,2
2014-11-27T20:05:59.845Z,2
2014-11-27T20:06:16.314Z,2
2014-11-27T20:06:34.876Z,2
2014-11-27T20:06:53.457Z,2
2014-11-27T20:07:12.129Z,2
2014-11-27T20:07:30.895Z,2
2014-11-27T20:07:48.163Z,2
2014-11-27T20:08:06.506Z,2
2014-11-27T20:08:24.881Z,2
2014-11-27T20:08:43.227Z,2
2014-11-27T20:09:01.258Z,2
2014-11-27T20:09:19.696Z,2
2014-11-27T20:09:38.274Z,2
2014-11-27T20:09:56.808Z,2
2014-11-27T20:10:14.855Z,2
2014-11-27T20:10:33.261Z,2
2014-11-27T20:10:51.029Z,2
2014-11-27T20:11:09.623Z,3
2014-11-27T20:11:28.216Z,2
2014-11-27T20:11:47.029Z,2
2014-11-27T20:12:05.250Z,2
2014-11-27T20:12:23.718Z,2
2014-11-27T20:12:41.515Z,2
2014-11-27T20:12:59.565Z,2
2014-11-27T20:13:18.175Z,2
2014-11-27T20:13:34.909Z,3
2014-11-27T20:13:53.534Z,2
2014-11-27T20:14:12.412Z,2
2014-11-27T20:14:29.646Z,3
2014-11-27T20:14:48.318Z,2
2014-11-27T20:15:06.883Z,2
2014-11-27T20:15:24.508Z,2
2014-11-27T20:15:43.148Z,3
2014-11-27T20:16:00.914Z,2
2014-11-27T20:16:19.479Z,2
2014-11-27T20:16:37.698Z,2
2014-11-27T20:16:55.339Z,2
2014-11-27T20:17:13.997Z,2
2014-11-27T20:17:31.356Z,2
2014-11-27T20:17:49.872Z,2
2014-11-27T20:18:08.575Z,2
2014-11-27T20:18:48.985Z,3
2014-11-27T20:19:06.204Z,3
2014-11-27T20:19:24.048Z,2
2014-11-27T20:19:42.675Z,2
2014-11-27T20:19:59.878Z,2
2014-11-27T20:20:18.206Z,2
2014-11-27T20:20:36.144Z,2
2014-11-27T20:20:53.349Z,2
2014-11-27T20:21:11.286Z,2
2014-11-27T20:21:30.255Z,2
2014-11-27T20:21:47.991Z,3
2014-11-27T20:22:06.648Z,2
2014-11-27T20:22:24.773Z,2
2014-11-27T20:22:43.601Z,3
2014-11-27T20:23:02.432Z,2
2014-11-27T20:23:21.010Z,2
2014-11-27T20:23:39.229Z,2
2014-11-27T20:23:57.372Z,2
2014-11-27T20:24:18.888Z,2
2014-11-27T20:24:37.622Z,2
2014-11-27T20:24:56.935Z,2
2014-11-27T20:25:16.062Z,3
2014-11-27T20:25:34.843Z,2
2014-11-27T20:25:52.999Z,3
2014-11-27T20:26:12.081Z,3
2014-11-27T20:26:31.299Z,2
2014-11-27T20:26:49.752Z,2
2014-11-27T20:27:08.426Z,3
2014-11-27T20:27:26.004Z,2
2014-11-27T20:27:43.973Z,2
2014-11-27T20:28:00.614Z,2
2014-11-27T20:28:19.429Z,2
2014-11-27T20:28:36.757Z,2
2014-11-27T20:28:55.507Z,2
2014-11-27T20:29:13.025Z,2
2014-11-27T20:29:36.525Z,2
2014-11-27T20:29:55.588Z,2
2014-11-27T20:30:12.759Z,3
2014-11-27T20:30:31.605Z,2
2014-11-27T20:30:49.965Z,2
2014-11-27T20:31:07.965Z,3
2014-11-27T20:31:26.389Z,2
2014-11-27T20:31:45.311Z,2
2014-11-27T20:32:03.280Z,2
2014-11-27T20:32:22.032Z,2
2014-11-27T20:32:39.798Z,2
2014-11-27T20:32:58.360Z,2
2014-11-27T20:33:16.657Z,2
2014-11-27T20:33:35.426Z,2
2014-11-27T20:33:53.816Z,2
2014-11-27T20:34:11.457Z,2
2014-11-27T20:34:29.162Z,2
2014-11-27T20:34:47.553Z,2
2014-11-27T20:35:06.490Z,2
2014-11-27T20:35:28.381Z,3
2014-11-27T20:35:46.867Z,3
2014-11-27T20:36:05.305Z,2
2014-11-27T20:36:24.445Z,2
2014-11-27T20:36:42.886Z,2
2014-11-27T20:37:02.323Z,2
2014-11-27T20:37:21.511Z,2
2014-11-27T20:37:40.075Z,2
2014-11-27T20:37:59.075Z,3
2014-11-27T20:38:20.497Z,3
2014-11-27T20:38:39.500Z,2
2014-11-27T20:38:57.360Z,2
2014-11-27T20:39:16.156Z,2
2014-11-27T20:39:34.922Z,2
2014-11-27T20:39:53.112Z,2
2014-11-27T20:40:10.908Z,2
2014-11-27T20:40:28.987Z,2
2014-11-27T20:40:47.927Z,2
2014-11-27T20:41:06.161Z,2
2014-11-27T20:41:24.052Z,2
2014-11-27T20:41:42.083Z,2
2014-11-27T20:42:00.351Z,2
2014-11-27T20:42:18.132Z,2
2014-11-27T20:42:36.710Z,3
2014-11-27T20:42:55.087Z,3
2014-11-27T20:43:13.759Z,3
2014-11-27T20:43:31.181Z,2
2014-11-27T20:43:50.056Z,2
2014-11-27T20:44:08.059Z,2
2014-11-27T20:44:26.137Z,2
2014-11-27T20:44:44.153Z,2
2014-11-27T20:45:02.030Z,2
2014-11-27T20:45:19.920Z,3
2014-11-27T20:45:38.452Z,2
2014-11-27T20:45:56.467Z,2
2014-11-27T20:46:14.267Z,2
2014-11-27T20:46:31.642Z,2
2014-11-27T20:46:49.627Z,3
2014-11-27T20:47:08.408Z,2
2014-11-27T20:47:26.191Z,2
2014-11-27T20:47:44.879Z,2
2014-11-27T20:48:02.769Z,2
2014-11-27T20:48:20.834Z,2
2014-11-27T20:48:38.224Z,2
2014-11-27T20:48:56.771Z,2
2014-11-27T20:49:15.274Z,2
2014-11-27T20:49:33.165Z,2
2014-11-27T20:49:50.305Z,2
2014-11-27T20:50:07.555Z,2
2014-11-27T20:50:33.089Z,2
2014-11-27T20:50:51.073Z,2
2014-11-27T20:51:11.823Z,2
